Wolf, Ohio
Current Conditions -  °F | °C
As of 2:53 AM on Sunday 26 Oct 2014 (Local Time) from KPHD Reporting Station
Clear Clear  
Wind Chill: 46°   Ceiling: Unl
Heat Index: 46°   Visibility: 8mi
Dew Point: 34°   Wind: 0mph
Humidity: 63%   Direction: NA
Pressure: 29.84"   Gusts: NA
Location:  40.2433°N, 81.534°W
Report Text: KPHD 260653Z AUTO 00000KT 8SM CLR 08/01 A2984 RMK AO2 SLP104 T00780011
Loading
Personal Weather Stations






























Interactive Weather Map
Tropical Storm Tracking
New forecast layout! Learn more

10-Day Weather Forecast

Advertisements
Track Severe Weather on mobile